Point Vivian, New York
Current Conditions -  °F | °C
As of 2:59 AM on Monday 26 Jan 2015 (Local Time) from KGTB Reporting Station
Clear Clear  
Wind Chill: -14°   Ceiling: Unl
Heat Index: -3°   Visibility: 10mi
Dew Point: -9°   Wind: 5mph
Humidity: 77%   Direction: 170°S
Pressure: 30.08"   Gusts: NA
Location:  44.3057°N, 75.9374°W
Report Text: KGTB 260759Z AUTO 17004KT 10SM CLR M20/M23 A3008 RMK AO2 SLP204 T11971228
Loading
Personal Weather Stations






























Interactive Weather Map New forecast layout! Learn more

10-Day Weather Forecast

Advertisements
Track Severe Weather on mobile